sensor_id;sensor_type;location;lat;lon;timestamp;temperature;humidity
3896;DHT22;1963;48.804;8.358;2022-11-03T00:01:32;7.70;99.90
3896;DHT22;1963;48.804;8.358;2022-11-03T00:04:00;7.70;99.90
3896;DHT22;1963;48.804;8.358;2022-11-03T00:06:28;7.70;99.90
3896;DHT22;1963;48.804;8.358;2022-11-03T00:08:57;7.60;99.90
3896;DHT22;1963;48.804;8.358;2022-11-03T00:11:26;7.60;99.90
3896;DHT22;1963;48.804;8.358;2022-11-03T00:13:55;7.60;99.90
3896;DHT22;1963;48.804;8.358;2022-11-03T00:16:23;7.60;99.90
3896;DHT22;1963;48.804;8.358;2022-11-03T00:18:51;7.60;99.90
3896;DHT22;1963;48.804;8.358;2022-11-03T00:21:20;7.60;99.90
3896;DHT22;1963;48.804;8.358;2022-11-03T00:23:48;7.60;99.90
3896;DHT22;1963;48.804;8.358;2022-11-03T00:26:17;7.50;99.90
3896;DHT22;1963;48.804;8.358;2022-11-03T00:28:49;7.50;99.90
3896;DHT22;1963;48.804;8.358;2022-11-03T00:31:19;7.50;99.90
3896;DHT22;1963;48.804;8.358;2022-11-03T00:33:47;7.50;99.90
3896;DHT22;1963;48.804;8.358;2022-11-03T00:36:16;7.50;99.90
3896;DHT22;1963;48.804;8.358;2022-11-03T00:38:47;7.50;99.90
3896;DHT22;1963;48.804;8.358;2022-11-03T00:41:15;7.40;99.90
3896;DHT22;1963;48.804;8.358;2022-11-03T00:43:43;7.40;99.90
3896;DHT22;1963;48.804;8.358;2022-11-03T00:46:13;7.40;99.90
3896;DHT22;1963;48.804;8.358;2022-11-03T00:48:41;7.30;99.90
3896;DHT22;1963;48.804;8.358;2022-11-03T00:51:11;7.30;99.90
3896;DHT22;1963;48.804;8.358;2022-11-03T00:53:41;7.30;99.90
3896;DHT22;1963;48.804;8.358;2022-11-03T00:56:10;7.30;99.90
3896;DHT22;1963;48.804;8.358;2022-11-03T00:58:39;7.30;99.90
3896;DHT22;1963;48.804;8.358;2022-11-03T01:01:09;7.20;99.90
3896;DHT22;1963;48.804;8.358;2022-11-03T01:03:41;7.30;99.90
3896;DHT22;1963;48.804;8.358;2022-11-03T01:06:30;7.20;99.90
3896;DHT22;1963;48.804;8.358;2022-11-03T01:09:15;7.20;99.90
3896;DHT22;1963;48.804;8.358;2022-11-03T01:11:51;7.20;99.90
3896;DHT22;1963;48.804;8.358;2022-11-03T01:14:20;7.20;99.90
3896;DHT22;1963;48.804;8.358;2022-11-03T01:16:48;7.10;99.90
3896;DHT22;1963;48.804;8.358;2022-11-03T01:19:17;7.10;99.90
3896;DHT22;1963;48.804;8.358;2022-11-03T01:21:45;7.10;99.90
3896;DHT22;1963;48.804;8.358;2022-11-03T01:24:14;7.10;99.90
3896;DHT22;1963;48.804;8.358;2022-11-03T01:26:42;7.10;99.90
3896;DHT22;1963;48.804;8.358;2022-11-03T01:29:10;7.00;99.90
3896;DHT22;1963;48.804;8.358;2022-11-03T01:31:38;7.00;99.90
3896;DHT22;1963;48.804;8.358;2022-11-03T01:34:06;6.90;99.90
3896;DHT22;1963;48.804;8.358;2022-11-03T01:36:35;6.90;99.90
3896;DHT22;1963;48.804;8.358;2022-11-03T01:39:03;6.90;99.90
3896;DHT22;1963;48.804;8.358;2022-11-03T01:41:31;6.90;99.90
3896;DHT22;1963;48.804;8.358;2022-11-03T01:44:25;6.90;99.90
3896;DHT22;1963;48.804;8.358;2022-11-03T01:46:55;6.90;99.90
3896;DHT22;1963;48.804;8.358;2022-11-03T01:49:28;6.90;99.90
3896;DHT22;1963;48.804;8.358;2022-11-03T01:52:02;6.80;99.90
3896;DHT22;1963;48.804;8.358;2022-11-03T01:54:31;6.80;99.90
3896;DHT22;1963;48.804;8.358;2022-11-03T01:57:01;6.80;99.90
3896;DHT22;1963;48.804;8.358;2022-11-03T01:59:32;6.80;99.90
3896;DHT22;1963;48.804;8.358;2022-11-03T02:02:00;6.80;99.90
3896;DHT22;1963;48.804;8.358;2022-11-03T02:04:29;6.70;99.90
3896;DHT22;1963;48.804;8.358;2022-11-03T02:13:54;6.60;99.90
3896;DHT22;1963;48.804;8.358;2022-11-03T02:16:22;6.60;99.90
3896;DHT22;1963;48.804;8.358;2022-11-03T02:18:52;6.60;99.90
3896;DHT22;1963;48.804;8.358;2022-11-03T02:21:26;6.60;99.90
3896;DHT22;1963;48.804;8.358;2022-11-03T02:24:00;6.60;99.90
3896;DHT22;1963;48.804;8.358;2022-11-03T02:26:31;6.60;99.90
3896;DHT22;1963;48.804;8.358;2022-11-03T02:28:59;6.60;99.90
3896;DHT22;1963;48.804;8.358;2022-11-03T02:31:31;6.60;99.90
3896;DHT22;1963;48.804;8.358;2022-11-03T02:34:05;6.60;99.90
3896;DHT22;1963;48.804;8.358;2022-11-03T02:36:38;6.50;99.90
3896;DHT22;1963;48.804;8.358;2022-11-03T02:39:11;6.50;99.90
3896;DHT22;1963;48.804;8.358;2022-11-03T02:41:42;6.50;99.90
3896;DHT22;1963;48.804;8.358;2022-11-03T02:44:15;6.50;99.90
3896;DHT22;1963;48.804;8.358;2022-11-03T02:46:46;6.50;99.90
3896;DHT22;1963;48.804;8.358;2022-11-03T02:49:15;6.50;99.90
3896;DHT22;1963;48.804;8.358;2022-11-03T02:51:43;6.50;99.90
3896;DHT22;1963;48.804;8.358;2022-11-03T02:54:13;6.50;99.90
3896;DHT22;1963;48.804;8.358;2022-11-03T02:56:48;6.50;99.90
3896;DHT22;1963;48.804;8.358;2022-11-03T02:59:19;6.50;99.90
3896;DHT22;1963;48.804;8.358;2022-11-03T03:01:54;6.50;99.90
3896;DHT22;1963;48.804;8.358;2022-11-03T03:04:27;6.40;99.90
3896;DHT22;1963;48.804;8.358;2022-11-03T03:06:59;6.40;99.90
3896;DHT22;1963;48.804;8.358;2022-11-03T03:09:30;6.40;99.90
3896;DHT22;1963;48.804;8.358;2022-11-03T03:12:02;6.40;99.90
3896;DHT22;1963;48.804;8.358;2022-11-03T03:14:34;6.40;99.90
3896;DHT22;1963;48.804;8.358;2022-11-03T03:17:06;6.40;99.90
3896;DHT22;1963;48.804;8.358;2022-11-03T03:19:45;6.40;99.90
3896;DHT22;1963;48.804;8.358;2022-11-03T03:22:21;6.40;99.90
3896;DHT22;1963;48.804;8.358;2022-11-03T03:24:54;6.40;99.90
3896;DHT22;1963;48.804;8.358;2022-11-03T03:27:28;6.40;99.90
3896;DHT22;1963;48.804;8.358;2022-11-03T03:30:02;6.40;99.90
3896;DHT22;1963;48.804;8.358;2022-11-03T03:32:34;6.40;99.90
3896;DHT22;1963;48.804;8.358;2022-11-03T03:35:05;6.40;99.90
3896;DHT22;1963;48.804;8.358;2022-11-03T03:37:36;6.40;99.90
3896;DHT22;1963;48.804;8.358;2022-11-03T03:40:09;6.40;99.90
3896;DHT22;1963;48.804;8.358;2022-11-03T03:42:39;6.40;99.90
3896;DHT22;1963;48.804;8.358;2022-11-03T03:45:10;6.40;99.90
3896;DHT22;1963;48.804;8.358;2022-11-03T03:47:39;6.40;99.90
3896;DHT22;1963;48.804;8.358;2022-11-03T03:50:07;6.40;99.90
3896;DHT22;1963;48.804;8.358;2022-11-03T03:52:36;6.40;99.90
3896;DHT22;1963;48.804;8.358;2022-11-03T03:55:09;6.40;99.90
3896;DHT22;1963;48.804;8.358;2022-11-03T03:57:40;6.40;99.90
3896;DHT22;1963;48.804;8.358;2022-11-03T04:00:11;6.40;99.90
3896;DHT22;1963;48.804;8.358;2022-11-03T04:02:41;6.40;99.90
3896;DHT22;1963;48.804;8.358;2022-11-03T04:05:09;6.40;99.90
3896;DHT22;1963;48.804;8.358;2022-11-03T04:07:37;6.40;99.90
3896;DHT22;1963;48.804;8.358;2022-11-03T04:10:14;6.40;99.90
3896;DHT22;1963;48.804;8.358;2022-11-03T04:12:44;6.40;99.90
3896;DHT22;1963;48.804;8.358;2022-11-03T04:15:30;6.40;99.90
3896;DHT22;1963;48.804;8.358;2022-11-03T04:18:15;6.40;99.90
3896;DHT22;1963;48.804;8.358;2022-11-03T04:21:01;6.40;99.90
3896;DHT22;1963;48.804;8.358;2022-11-03T04:23:46;6.30;99.90
3896;DHT22;1963;48.804;8.358;2022-11-03T04:26:17;6.40;99.90
3896;DHT22;1963;48.804;8.358;2022-11-03T04:28:46;6.40;99.90
3896;DHT22;1963;48.804;8.358;2022-11-03T04:31:15;6.40;99.90
3896;DHT22;1963;48.804;8.358;2022-11-03T04:33:44;6.40;99.90
3896;DHT22;1963;48.804;8.358;2022-11-03T04:36:16;6.40;99.90
3896;DHT22;1963;48.804;8.358;2022-11-03T04:38:45;6.30;99.90
3896;DHT22;1963;48.804;8.358;2022-11-03T04:41:15;6.40;99.90
3896;DHT22;1963;48.804;8.358;2022-11-03T04:43:44;6.40;99.90
3896;DHT22;1963;48.804;8.358;2022-11-03T04:46:16;6.30;99.90
3896;DHT22;1963;48.804;8.358;2022-11-03T04:48:46;6.40;99.90
3896;DHT22;1963;48.804;8.358;2022-11-03T04:51:15;6.30;99.90
3896;DHT22;1963;48.804;8.358;2022-11-03T04:53:54;6.30;99.90
3896;DHT22;1963;48.804;8.358;2022-11-03T04:56:24;6.30;99.90
3896;DHT22;1963;48.804;8.358;2022-11-03T04:58:53;6.30;99.90
3896;DHT22;1963;48.804;8.358;2022-11-03T05:01:23;6.30;99.90
3896;DHT22;1963;48.804;8.358;2022-11-03T05:03:52;6.30;99.90
3896;DHT22;1963;48.804;8.358;2022-11-03T05:06:22;6.20;99.90
3896;DHT22;1963;48.804;8.358;2022-11-03T05:08:53;6.20;99.90
3896;DHT22;1963;48.804;8.358;2022-11-03T05:11:28;6.30;99.90
3896;DHT22;1963;48.804;8.358;2022-11-03T05:13:58;6.30;99.90
3896;DHT22;1963;48.804;8.358;2022-11-03T05:16:30;6.20;99.90
3896;DHT22;1963;48.804;8.358;2022-11-03T05:18:58;6.30;99.90
3896;DHT22;1963;48.804;8.358;2022-11-03T05:21:26;6.20;99.90
3896;DHT22;1963;48.804;8.358;2022-11-03T05:23:58;6.20;99.90
3896;DHT22;1963;48.804;8.358;2022-11-03T05:26:32;6.20;99.90
3896;DHT22;1963;48.804;8.358;2022-11-03T05:29:03;6.20;99.90
3896;DHT22;1963;48.804;8.358;2022-11-03T05:31:40;6.20;99.90
3896;DHT22;1963;48.804;8.358;2022-11-03T05:37:21;6.20;99.90
3896;DHT22;1963;48.804;8.358;2022-11-03T05:39:55;6.20;99.90
3896;DHT22;1963;48.804;8.358;2022-11-03T05:42:29;6.20;99.90
3896;DHT22;1963;48.804;8.358;2022-11-03T05:45:00;6.20;99.90
3896;DHT22;1963;48.804;8.358;2022-11-03T05:47:33;6.20;99.90
3896;DHT22;1963;48.804;8.358;2022-11-03T05:50:13;6.20;99.90
3896;DHT22;1963;48.804;8.358;2022-11-03T05:52:43;6.20;99.90
3896;DHT22;1963;48.804;8.358;2022-11-03T05:55:24;6.20;99.90
3896;DHT22;1963;48.804;8.358;2022-11-03T05:57:54;6.20;99.90
3896;DHT22;1963;48.804;8.358;2022-11-03T06:00:26;6.30;99.90
3896;DHT22;1963;48.804;8.358;2022-11-03T06:02:57;6.30;99.90
3896;DHT22;1963;48.804;8.358;2022-11-03T06:05:25;6.30;99.90
3896;DHT22;1963;48.804;8.358;2022-11-03T06:07:55;6.30;99.90
3896;DHT22;1963;48.804;8.358;2022-11-03T06:10:27;6.30;99.90
3896;DHT22;1963;48.804;8.358;2022-11-03T06:13:00;6.30;99.90
3896;DHT22;1963;48.804;8.358;2022-11-03T06:15:31;6.30;99.90
3896;DHT22;1963;48.804;8.358;2022-11-03T06:18:11;6.30;99.90
3896;DHT22;1963;48.804;8.358;2022-11-03T06:20:40;6.30;99.90
3896;DHT22;1963;48.804;8.358;2022-11-03T06:23:10;6.30;99.90
3896;DHT22;1963;48.804;8.358;2022-11-03T06:25:40;6.30;99.90
3896;DHT22;1963;48.804;8.358;2022-11-03T06:28:14;6.40;99.90
3896;DHT22;1963;48.804;8.358;2022-11-03T06:30:42;6.40;99.90
3896;DHT22;1963;48.804;8.358;2022-11-03T06:33:14;6.40;99.90
3896;DHT22;1963;48.804;8.358;2022-11-03T06:35:43;6.50;99.90
3896;DHT22;1963;48.804;8.358;2022-11-03T06:38:14;6.50;99.90
3896;DHT22;1963;48.804;8.358;2022-11-03T06:40:44;6.60;99.90
3896;DHT22;1963;48.804;8.358;2022-11-03T06:43:17;6.60;99.90
3896;DHT22;1963;48.804;8.358;2022-11-03T06:45:48;6.70;99.90
3896;DHT22;1963;48.804;8.358;2022-11-03T06:48:24;6.70;99.90
3896;DHT22;1963;48.804;8.358;2022-11-03T06:50:53;6.80;99.90
3896;DHT22;1963;48.804;8.358;2022-11-03T06:53:27;6.90;99.90
3896;DHT22;1963;48.804;8.358;2022-11-03T06:55:55;6.90;99.90
3896;DHT22;1963;48.804;8.358;2022-11-03T06:58:27;7.00;99.90
3896;DHT22;1963;48.804;8.358;2022-11-03T07:00:58;7.10;99.90
3896;DHT22;1963;48.804;8.358;2022-11-03T07:03:31;7.20;99.90
3896;DHT22;1963;48.804;8.358;2022-11-03T07:06:13;7.20;99.90
3896;DHT22;1963;48.804;8.358;2022-11-03T07:08:43;7.30;99.90
3896;DHT22;1963;48.804;8.358;2022-11-03T07:11:14;7.40;99.90
3896;DHT22;1963;48.804;8.358;2022-11-03T07:13:43;7.50;99.90
3896;DHT22;1963;48.804;8.358;2022-11-03T07:16:15;7.60;99.90
3896;DHT22;1963;48.804;8.358;2022-11-03T07:18:46;7.60;99.90
3896;DHT22;1963;48.804;8.358;2022-11-03T07:21:33;7.70;99.90
3896;DHT22;1963;48.804;8.358;2022-11-03T07:24:10;7.80;99.90
3896;DHT22;1963;48.804;8.358;2022-11-03T07:26:39;7.80;99.90
3896;DHT22;1963;48.804;8.358;2022-11-03T07:29:11;7.90;99.90
3896;DHT22;1963;48.804;8.358;2022-11-03T07:31:43;8.00;99.90
3896;DHT22;1963;48.804;8.358;2022-11-03T07:34:14;8.10;99.90
3896;DHT22;1963;48.804;8.358;2022-11-03T07:36:43;8.20;99.90
3896;DHT22;1963;48.804;8.358;2022-11-03T07:39:14;8.30;99.90
3896;DHT22;1963;48.804;8.358;2022-11-03T07:41:43;8.30;99.90
3896;DHT22;1963;48.804;8.358;2022-11-03T07:44:14;8.40;99.90
3896;DHT22;1963;48.804;8.358;2022-11-03T07:46:43;8.50;99.90
3896;DHT22;1963;48.804;8.358;2022-11-03T07:49:20;8.60;99.90
3896;DHT22;1963;48.804;8.358;2022-11-03T07:51:51;8.70;99.90
3896;DHT22;1963;48.804;8.358;2022-11-03T07:54:21;8.80;99.90
3896;DHT22;1963;48.804;8.358;2022-11-03T07:56:52;9.00;99.90
3896;DHT22;1963;48.804;8.358;2022-11-03T07:59:22;9.20;99.90
3896;DHT22;1963;48.804;8.358;2022-11-03T08:01:53;9.30;99.90
3896;DHT22;1963;48.804;8.358;2022-11-03T08:04:25;9.50;99.90
3896;DHT22;1963;48.804;8.358;2022-11-03T08:06:53;9.60;99.90
3896;DHT22;1963;48.804;8.358;2022-11-03T08:09:22;9.80;99.90
3896;DHT22;1963;48.804;8.358;2022-11-03T08:11:50;9.90;99.90
3896;DHT22;1963;48.804;8.358;2022-11-03T08:14:18;10.00;99.90
3896;DHT22;1963;48.804;8.358;2022-11-03T08:16:46;10.10;99.90
3896;DHT22;1963;48.804;8.358;2022-11-03T08:19:14;10.30;99.90
3896;DHT22;1963;48.804;8.358;2022-11-03T08:21:43;10.50;99.90
3896;DHT22;1963;48.804;8.358;2022-11-03T08:24:11;10.70;99.90
3896;DHT22;1963;48.804;8.358;2022-11-03T08:26:39;10.90;99.90
3896;DHT22;1963;48.804;8.358;2022-11-03T08:29:07;11.10;99.90
3896;DHT22;1963;48.804;8.358;2022-11-03T08:31:35;11.40;99.90
3896;DHT22;1963;48.804;8.358;2022-11-03T08:34:03;11.70;99.90
3896;DHT22;1963;48.804;8.358;2022-11-03T08:36:31;12.00;99.90
3896;DHT22;1963;48.804;8.358;2022-11-03T08:39:00;12.30;99.90
3896;DHT22;1963;48.804;8.358;2022-11-03T08:41:28;12.60;99.90
3896;DHT22;1963;48.804;8.358;2022-11-03T08:43:57;12.80;99.90
3896;DHT22;1963;48.804;8.358;2022-11-03T08:46:24;13.10;99.90
3896;DHT22;1963;48.804;8.358;2022-11-03T08:48:52;13.30;99.90
3896;DHT22;1963;48.804;8.358;2022-11-03T08:51:20;13.50;99.90
3896;DHT22;1963;48.804;8.358;2022-11-03T08:53:48;13.70;99.90
3896;DHT22;1963;48.804;8.358;2022-11-03T08:56:20;13.90;99.90
3896;DHT22;1963;48.804;8.358;2022-11-03T08:58:49;14.00;99.90
3896;DHT22;1963;48.804;8.358;2022-11-03T09:01:16;14.20;99.90
3896;DHT22;1963;48.804;8.358;2022-11-03T09:03:44;14.40;99.90
3896;DHT22;1963;48.804;8.358;2022-11-03T09:06:12;14.50;99.90
3896;DHT22;1963;48.804;8.358;2022-11-03T09:08:40;14.90;99.90
3896;DHT22;1963;48.804;8.358;2022-11-03T09:11:29;15.00;99.90
3896;DHT22;1963;48.804;8.358;2022-11-03T09:13:57;15.20;99.90
3896;DHT22;1963;48.804;8.358;2022-11-03T09:16:25;15.30;99.90
3896;DHT22;1963;48.804;8.358;2022-11-03T09:18:53;15.30;99.90
3896;DHT22;1963;48.804;8.358;2022-11-03T09:21:21;15.30;99.90
3896;DHT22;1963;48.804;8.358;2022-11-03T09:23:49;15.40;99.90
3896;DHT22;1963;48.804;8.358;2022-11-03T09:26:17;15.50;99.90
3896;DHT22;1963;48.804;8.358;2022-11-03T09:28:47;15.50;99.90
3896;DHT22;1963;48.804;8.358;2022-11-03T09:31:15;15.40;99.90
3896;DHT22;1963;48.804;8.358;2022-11-03T09:33:43;15.30;99.90
3896;DHT22;1963;48.804;8.358;2022-11-03T09:36:11;15.20;99.90
3896;DHT22;1963;48.804;8.358;2022-11-03T09:38:38;15.20;99.90
3896;DHT22;1963;48.804;8.358;2022-11-03T09:41:06;15.10;99.90
3896;DHT22;1963;48.804;8.358;2022-11-03T09:43:55;15.20;99.90
3896;DHT22;1963;48.804;8.358;2022-11-03T09:46:24;15.10;99.90
3896;DHT22;1963;48.804;8.358;2022-11-03T09:48:53;15.00;99.90
3896;DHT22;1963;48.804;8.358;2022-11-03T09:51:23;14.80;99.90
3896;DHT22;1963;48.804;8.358;2022-11-03T09:53:51;14.90;99.90
3896;DHT22;1963;48.804;8.358;2022-11-03T09:56:21;14.90;99.90
3896;DHT22;1963;48.804;8.358;2022-11-03T09:58:49;14.80;99.90
3896;DHT22;1963;48.804;8.358;2022-11-03T10:01:22;14.90;99.90
3896;DHT22;1963;48.804;8.358;2022-11-03T10:03:50;15.00;99.90
3896;DHT22;1963;48.804;8.358;2022-11-03T10:06:18;15.10;99.90
3896;DHT22;1963;48.804;8.358;2022-11-03T10:08:47;15.20;99.90
3896;DHT22;1963;48.804;8.358;2022-11-03T10:11:15;15.30;99.90
3896;DHT22;1963;48.804;8.358;2022-11-03T10:13:46;15.30;99.90
3896;DHT22;1963;48.804;8.358;2022-11-03T10:16:17;15.20;99.90
3896;DHT22;1963;48.804;8.358;2022-11-03T10:18:46;15.30;99.90
3896;DHT22;1963;48.804;8.358;2022-11-03T10:21:17;15.20;99.90
3896;DHT22;1963;48.804;8.358;2022-11-03T10:23:45;15.20;99.90
3896;DHT22;1963;48.804;8.358;2022-11-03T10:26:17;15.20;99.90
3896;DHT22;1963;48.804;8.358;2022-11-03T10:28:59;15.20;99.90
3896;DHT22;1963;48.804;8.358;2022-11-03T10:31:32;15.30;99.90
3896;DHT22;1963;48.804;8.358;2022-11-03T10:34:02;15.40;99.90
3896;DHT22;1963;48.804;8.358;2022-11-03T10:36:31;15.40;99.90
3896;DHT22;1963;48.804;8.358;2022-11-03T10:39:23;15.40;99.90
3896;DHT22;1963;48.804;8.358;2022-11-03T10:41:56;15.40;99.90
3896;DHT22;1963;48.804;8.358;2022-11-03T10:44:25;15.50;99.90
3896;DHT22;1963;48.804;8.358;2022-11-03T10:46:57;15.50;99.90
3896;DHT22;1963;48.804;8.358;2022-11-03T10:49:28;15.50;99.90
3896;DHT22;1963;48.804;8.358;2022-11-03T10:52:18;15.50;99.90
3896;DHT22;1963;48.804;8.358;2022-11-03T10:54:49;15.50;99.90
3896;DHT22;1963;48.804;8.358;2022-11-03T10:57:17;15.50;99.90
3896;DHT22;1963;48.804;8.358;2022-11-03T10:59:48;15.50;99.90
3896;DHT22;1963;48.804;8.358;2022-11-03T11:02:17;15.50;99.90
3896;DHT22;1963;48.804;8.358;2022-11-03T11:04:49;15.60;99.90
3896;DHT22;1963;48.804;8.358;2022-11-03T11:07:22;15.60;99.90
3896;DHT22;1963;48.804;8.358;2022-11-03T11:09:50;15.50;99.90
3896;DHT22;1963;48.804;8.358;2022-11-03T11:12:21;15.60;99.90
3896;DHT22;1963;48.804;8.358;2022-11-03T11:14:53;15.60;99.90
3896;DHT22;1963;48.804;8.358;2022-11-03T11:17:40;15.60;99.90
3896;DHT22;1963;48.804;8.358;2022-11-03T11:20:36;15.60;99.90
3896;DHT22;1963;48.804;8.358;2022-11-03T11:26:29;15.60;99.90
3896;DHT22;1963;48.804;8.358;2022-11-03T11:42:10;15.60;99.90
3896;DHT22;1963;48.804;8.358;2022-11-03T11:44:54;15.70;99.90
3896;DHT22;1963;48.804;8.358;2022-11-03T11:47:39;15.70;99.90
3896;DHT22;1963;48.804;8.358;2022-11-03T11:50:23;15.70;99.90
3896;DHT22;1963;48.804;8.358;2022-11-03T11:52:57;15.60;99.90
3896;DHT22;1963;48.804;8.358;2022-11-03T11:55:31;15.50;99.90
3896;DHT22;1963;48.804;8.358;2022-11-03T11:58:04;15.50;99.90
3896;DHT22;1963;48.804;8.358;2022-11-03T12:00:33;15.60;99.90
3896;DHT22;1963;48.804;8.358;2022-11-03T12:03:02;15.60;99.90
3896;DHT22;1963;48.804;8.358;2022-11-03T12:05:33;15.60;99.90
3896;DHT22;1963;48.804;8.358;2022-11-03T12:08:15;15.50;99.90
3896;DHT22;1963;48.804;8.358;2022-11-03T12:10:51;15.50;99.90
3896;DHT22;1963;48.804;8.358;2022-11-03T12:13:41;15.40;99.90
3896;DHT22;1963;48.804;8.358;2022-11-03T12:16:28;15.30;99.90
3896;DHT22;1963;48.804;8.358;2022-11-03T12:19:07;15.30;99.90
3896;DHT22;1963;48.804;8.358;2022-11-03T12:21:46;15.30;99.90
3896;DHT22;1963;48.804;8.358;2022-11-03T12:24:26;15.30;99.90
3896;DHT22;1963;48.804;8.358;2022-11-03T12:26:55;15.30;99.90
3896;DHT22;1963;48.804;8.358;2022-11-03T12:29:24;15.30;99.90
3896;DHT22;1963;48.804;8.358;2022-11-03T12:31:52;15.30;99.90
3896;DHT22;1963;48.804;8.358;2022-11-03T12:34:21;15.30;99.90
3896;DHT22;1963;48.804;8.358;2022-11-03T12:36:49;15.40;99.90
3896;DHT22;1963;48.804;8.358;2022-11-03T12:39:21;15.40;99.90
3896;DHT22;1963;48.804;8.358;2022-11-03T12:41:49;15.40;99.90
3896;DHT22;1963;48.804;8.358;2022-11-03T12:44:18;15.40;99.90
3896;DHT22;1963;48.804;8.358;2022-11-03T12:46:47;15.40;99.90
3896;DHT22;1963;48.804;8.358;2022-11-03T12:49:15;15.40;99.90
3896;DHT22;1963;48.804;8.358;2022-11-03T12:51:43;15.40;99.90
3896;DHT22;1963;48.804;8.358;2022-11-03T12:54:11;15.40;99.90
3896;DHT22;1963;48.804;8.358;2022-11-03T12:56:40;15.40;99.90
3896;DHT22;1963;48.804;8.358;2022-11-03T12:59:08;15.40;99.90
3896;DHT22;1963;48.804;8.358;2022-11-03T13:01:36;15.40;99.90
3896;DHT22;1963;48.804;8.358;2022-11-03T13:04:05;15.30;99.90
3896;DHT22;1963;48.804;8.358;2022-11-03T13:06:34;15.30;99.90
3896;DHT22;1963;48.804;8.358;2022-11-03T13:09:02;15.30;99.90
3896;DHT22;1963;48.804;8.358;2022-11-03T13:11:30;15.30;99.90
3896;DHT22;1963;48.804;8.358;2022-11-03T13:14:15;15.30;99.90
3896;DHT22;1963;48.804;8.358;2022-11-03T13:16:44;15.30;99.90
3896;DHT22;1963;48.804;8.358;2022-11-03T13:19:13;15.30;99.90
3896;DHT22;1963;48.804;8.358;2022-11-03T13:21:42;15.30;99.90
3896;DHT22;1963;48.804;8.358;2022-11-03T13:24:10;15.20;99.90
3896;DHT22;1963;48.804;8.358;2022-11-03T13:26:38;15.20;99.90
3896;DHT22;1963;48.804;8.358;2022-11-03T13:29:06;15.20;99.90
3896;DHT22;1963;48.804;8.358;2022-11-03T13:31:34;15.30;99.90
3896;DHT22;1963;48.804;8.358;2022-11-03T13:34:02;15.20;99.90
3896;DHT22;1963;48.804;8.358;2022-11-03T13:36:31;15.30;99.90
3896;DHT22;1963;48.804;8.358;2022-11-03T13:38:59;15.30;99.90
3896;DHT22;1963;48.804;8.358;2022-11-03T13:41:27;15.40;99.90
3896;DHT22;1963;48.804;8.358;2022-11-03T13:43:55;15.30;99.90
3896;DHT22;1963;48.804;8.358;2022-11-03T13:46:23;15.30;99.90
3896;DHT22;1963;48.804;8.358;2022-11-03T13:48:51;15.30;99.90
3896;DHT22;1963;48.804;8.358;2022-11-03T13:51:40;15.30;99.90
3896;DHT22;1963;48.804;8.358;2022-11-03T13:54:09;15.30;99.90
3896;DHT22;1963;48.804;8.358;2022-11-03T13:56:56;15.20;99.90
3896;DHT22;1963;48.804;8.358;2022-11-03T13:59:44;15.20;99.90
3896;DHT22;1963;48.804;8.358;2022-11-03T14:02:13;15.10;99.90
3896;DHT22;1963;48.804;8.358;2022-11-03T14:05:01;15.10;99.90
3896;DHT22;1963;48.804;8.358;2022-11-03T14:07:35;15.20;99.90
3896;DHT22;1963;48.804;8.358;2022-11-03T14:10:04;15.20;99.90
3896;DHT22;1963;48.804;8.358;2022-11-03T14:12:32;15.10;99.90
3896;DHT22;1963;48.804;8.358;2022-11-03T14:15:01;15.20;99.90
3896;DHT22;1963;48.804;8.358;2022-11-03T14:17:29;15.20;99.90
3896;DHT22;1963;48.804;8.358;2022-11-03T14:19:57;15.20;99.90
3896;DHT22;1963;48.804;8.358;2022-11-03T14:22:30;15.20;99.90
3896;DHT22;1963;48.804;8.358;2022-11-03T14:25:00;15.20;99.90
3896;DHT22;1963;48.804;8.358;2022-11-03T14:27:28;15.10;99.90
3896;DHT22;1963;48.804;8.358;2022-11-03T14:29:56;15.10;99.90
3896;DHT22;1963;48.804;8.358;2022-11-03T14:32:23;15.10;99.90
3896;DHT22;1963;48.804;8.358;2022-11-03T14:34:52;15.10;99.90
3896;DHT22;1963;48.804;8.358;2022-11-03T14:37:26;15.00;99.90
3896;DHT22;1963;48.804;8.358;2022-11-03T14:39:55;15.00;99.90
3896;DHT22;1963;48.804;8.358;2022-11-03T14:42:25;15.00;99.90
3896;DHT22;1963;48.804;8.358;2022-11-03T14:44:52;15.00;99.90
3896;DHT22;1963;48.804;8.358;2022-11-03T14:47:20;14.90;99.90
3896;DHT22;1963;48.804;8.358;2022-11-03T14:49:48;14.90;99.90
3896;DHT22;1963;48.804;8.358;2022-11-03T14:52:19;14.90;99.90
3896;DHT22;1963;48.804;8.358;2022-11-03T14:54:47;14.90;99.90
3896;DHT22;1963;48.804;8.358;2022-11-03T14:57:16;14.80;99.90
3896;DHT22;1963;48.804;8.358;2022-11-03T14:59:46;14.90;99.90
3896;DHT22;1963;48.804;8.358;2022-11-03T15:02:19;14.80;99.90
3896;DHT22;1963;48.804;8.358;2022-11-03T15:04:47;14.80;99.90
3896;DHT22;1963;48.804;8.358;2022-11-03T15:07:15;14.70;99.90
3896;DHT22;1963;48.804;8.358;2022-11-03T15:09:43;14.70;99.90
3896;DHT22;1963;48.804;8.358;2022-11-03T15:12:13;14.60;99.90
3896;DHT22;1963;48.804;8.358;2022-11-03T15:14:43;14.60;99.90
3896;DHT22;1963;48.804;8.358;2022-11-03T15:17:13;14.50;99.90
3896;DHT22;1963;48.804;8.358;2022-11-03T15:19:41;14.60;99.90
3896;DHT22;1963;48.804;8.358;2022-11-03T15:25:18;14.50;99.90
3896;DHT22;1963;48.804;8.358;2022-11-03T15:27:55;14.50;99.90
3896;DHT22;1963;48.804;8.358;2022-11-03T15:30:27;14.30;99.90
3896;DHT22;1963;48.804;8.358;2022-11-03T15:32:59;14.20;99.90
3896;DHT22;1963;48.804;8.358;2022-11-03T15:35:28;14.20;99.90
3896;DHT22;1963;48.804;8.358;2022-11-03T15:38:00;14.20;99.90
3896;DHT22;1963;48.804;8.358;2022-11-03T15:40:32;14.10;99.90
3896;DHT22;1963;48.804;8.358;2022-11-03T15:43:01;14.10;99.90
3896;DHT22;1963;48.804;8.358;2022-11-03T15:45:32;14.10;99.90
3896;DHT22;1963;48.804;8.358;2022-11-03T15:48:16;14.10;99.90
3896;DHT22;1963;48.804;8.358;2022-11-03T15:50:44;14.00;99.90
3896;DHT22;1963;48.804;8.358;2022-11-03T15:53:12;13.90;99.90
3896;DHT22;1963;48.804;8.358;2022-11-03T15:55:40;13.90;99.90
3896;DHT22;1963;48.804;8.358;2022-11-03T15:58:08;13.80;99.90
3896;DHT22;1963;48.804;8.358;2022-11-03T16:00:43;13.80;99.90
3896;DHT22;1963;48.804;8.358;2022-11-03T16:03:10;13.80;99.90
3896;DHT22;1963;48.804;8.358;2022-11-03T16:05:40;13.80;99.90
3896;DHT22;1963;48.804;8.358;2022-11-03T16:08:07;13.70;99.90
3896;DHT22;1963;48.804;8.358;2022-11-03T16:10:36;13.60;99.90
3896;DHT22;1963;48.804;8.358;2022-11-03T16:13:11;13.60;99.90
3896;DHT22;1963;48.804;8.358;2022-11-03T16:15:39;13.50;99.90
3896;DHT22;1963;48.804;8.358;2022-11-03T16:18:07;13.40;99.90
3896;DHT22;1963;48.804;8.358;2022-11-03T16:20:46;13.40;99.90
3896;DHT22;1963;48.804;8.358;2022-11-03T16:23:14;13.30;99.90
3896;DHT22;1963;48.804;8.358;2022-11-03T16:25:42;13.20;99.90
3896;DHT22;1963;48.804;8.358;2022-11-03T16:28:10;13.20;99.90
3896;DHT22;1963;48.804;8.358;2022-11-03T16:30:38;13.00;99.90
3896;DHT22;1963;48.804;8.358;2022-11-03T16:33:06;13.00;99.90
3896;DHT22;1963;48.804;8.358;2022-11-03T16:35:34;12.90;99.90
3896;DHT22;1963;48.804;8.358;2022-11-03T16:38:05;12.80;99.90
3896;DHT22;1963;48.804;8.358;2022-11-03T16:40:36;12.70;99.90
3896;DHT22;1963;48.804;8.358;2022-11-03T16:43:04;12.60;99.90
3896;DHT22;1963;48.804;8.358;2022-11-03T16:45:32;12.60;99.90
3896;DHT22;1963;48.804;8.358;2022-11-03T16:48:04;12.70;99.90
3896;DHT22;1963;48.804;8.358;2022-11-03T16:50:33;12.60;99.90
3896;DHT22;1963;48.804;8.358;2022-11-03T16:53:08;12.50;99.90
3896;DHT22;1963;48.804;8.358;2022-11-03T16:55:36;12.50;99.90
3896;DHT22;1963;48.804;8.358;2022-11-03T16:58:04;12.60;99.90
3896;DHT22;1963;48.804;8.358;2022-11-03T17:00:32;12.50;99.90
3896;DHT22;1963;48.804;8.358;2022-11-03T17:03:00;12.50;99.90
3896;DHT22;1963;48.804;8.358;2022-11-03T17:05:28;12.50;99.90